sensor_id;sensor_type;location;lat;lon;timestamp;P1;durP1;ratioP1;P2;durP2;ratioP2
42714;SDS011;28351;51.480;5.706;2023-05-10T00:00:35;12.30;;;5.80;;
42714;SDS011;28351;51.480;5.706;2023-05-10T00:03:01;8.40;;;5.05;;
42714;SDS011;28351;51.480;5.706;2023-05-10T00:05:32;9.98;;;5.82;;
42714;SDS011;28351;51.480;5.706;2023-05-10T00:10:23;11.60;;;5.40;;
42714;SDS011;28351;51.480;5.706;2023-05-10T00:12:49;10.57;;;6.05;;
42714;SDS011;28351;51.480;5.706;2023-05-10T00:15:14;12.70;;;6.15;;
42714;SDS011;28351;51.480;5.706;2023-05-10T00:17:40;12.00;;;6.63;;
42714;SDS011;28351;51.480;5.706;2023-05-10T00:20:05;12.82;;;5.93;;
42714;SDS011;28351;51.480;5.706;2023-05-10T00:22:32;12.70;;;6.65;;
42714;SDS011;28351;51.480;5.706;2023-05-10T00:24:58;13.65;;;7.50;;
42714;SDS011;28351;51.480;5.706;2023-05-10T00:27:24;16.00;;;7.60;;
42714;SDS011;28351;51.480;5.706;2023-05-10T00:29:49;14.02;;;7.05;;
42714;SDS011;28351;51.480;5.706;2023-05-10T00:32:15;14.50;;;7.47;;
42714;SDS011;28351;51.480;5.706;2023-05-10T00:34:41;12.85;;;7.32;;
42714;SDS011;28351;51.480;5.706;2023-05-10T00:37:07;17.00;;;8.65;;
42714;SDS011;28351;51.480;5.706;2023-05-10T00:39:32;15.95;;;7.93;;
42714;SDS011;28351;51.480;5.706;2023-05-10T00:41:58;16.20;;;8.27;;
42714;SDS011;28351;51.480;5.706;2023-05-10T00:44:25;15.65;;;8.50;;
42714;SDS011;28351;51.480;5.706;2023-05-10T00:46:50;14.90;;;7.93;;
42714;SDS011;28351;51.480;5.706;2023-05-10T00:49:16;19.73;;;8.82;;
42714;SDS011;28351;51.480;5.706;2023-05-10T00:51:42;17.05;;;8.50;;
42714;SDS011;28351;51.480;5.706;2023-05-10T00:54:10;17.70;;;8.40;;
42714;SDS011;28351;51.480;5.706;2023-05-10T00:56:38;17.15;;;8.75;;
42714;SDS011;28351;51.480;5.706;2023-05-10T00:59:05;15.73;;;8.80;;
42714;SDS011;28351;51.480;5.706;2023-05-10T01:01:31;20.17;;;10.32;;
42714;SDS011;28351;51.480;5.706;2023-05-10T01:03:57;17.73;;;9.90;;
42714;SDS011;28351;51.480;5.706;2023-05-10T01:06:23;19.90;;;9.70;;
42714;SDS011;28351;51.480;5.706;2023-05-10T01:08:49;21.83;;;10.02;;
42714;SDS011;28351;51.480;5.706;2023-05-10T01:11:15;22.63;;;10.77;;
42714;SDS011;28351;51.480;5.706;2023-05-10T01:13:41;28.35;;;11.00;;
42714;SDS011;28351;51.480;5.706;2023-05-10T01:16:08;28.42;;;11.27;;
42714;SDS011;28351;51.480;5.706;2023-05-10T01:18:35;27.80;;;12.25;;
42714;SDS011;28351;51.480;5.706;2023-05-10T01:21:10;29.05;;;12.48;;
42714;SDS011;28351;51.480;5.706;2023-05-10T01:32:38;29.73;;;13.10;;
42714;SDS011;28351;51.480;5.706;2023-05-10T01:35:40;33.38;;;13.77;;
42714;SDS011;28351;51.480;5.706;2023-05-10T01:38:18;37.60;;;15.20;;
42714;SDS011;28351;51.480;5.706;2023-05-10T01:43:32;50.10;;;16.80;;
42714;SDS011;28351;51.480;5.706;2023-05-10T01:46:08;49.63;;;17.98;;
42714;SDS011;28351;51.480;5.706;2023-05-10T01:48:47;58.58;;;20.05;;
42714;SDS011;28351;51.480;5.706;2023-05-10T01:51:15;57.92;;;17.67;;
42714;SDS011;28351;51.480;5.706;2023-05-10T01:53:45;66.70;;;20.80;;
42714;SDS011;28351;51.480;5.706;2023-05-10T01:56:12;57.47;;;20.23;;
42714;SDS011;28351;51.480;5.706;2023-05-10T01:58:40;64.68;;;18.60;;
42714;SDS011;28351;51.480;5.706;2023-05-10T02:01:10;66.72;;;21.00;;
42714;SDS011;28351;51.480;5.706;2023-05-10T02:03:36;64.78;;;19.55;;
42714;SDS011;28351;51.480;5.706;2023-05-10T02:06:05;64.00;;;20.75;;
42714;SDS011;28351;51.480;5.706;2023-05-10T02:08:31;68.63;;;21.92;;
42714;SDS011;28351;51.480;5.706;2023-05-10T02:11:00;55.83;;;18.75;;
42714;SDS011;28351;51.480;5.706;2023-05-10T02:13:27;56.40;;;18.58;;
42714;SDS011;28351;51.480;5.706;2023-05-10T02:15:54;60.40;;;19.25;;
42714;SDS011;28351;51.480;5.706;2023-05-10T02:18:21;59.33;;;19.83;;
42714;SDS011;28351;51.480;5.706;2023-05-10T02:20:49;65.25;;;20.50;;
42714;SDS011;28351;51.480;5.706;2023-05-10T02:23:17;62.28;;;19.92;;
42714;SDS011;28351;51.480;5.706;2023-05-10T02:25:43;58.72;;;19.90;;
42714;SDS011;28351;51.480;5.706;2023-05-10T02:28:11;66.38;;;21.98;;
42714;SDS011;28351;51.480;5.706;2023-05-10T02:30:39;67.07;;;22.23;;
42714;SDS011;28351;51.480;5.706;2023-05-10T02:33:05;62.33;;;22.30;;
42714;SDS011;28351;51.480;5.706;2023-05-10T02:35:31;56.97;;;20.27;;
42714;SDS011;28351;51.480;5.706;2023-05-10T02:37:58;66.75;;;22.55;;
42714;SDS011;28351;51.480;5.706;2023-05-10T02:40:25;60.67;;;20.50;;
42714;SDS011;28351;51.480;5.706;2023-05-10T02:42:52;60.30;;;21.55;;
42714;SDS011;28351;51.480;5.706;2023-05-10T02:45:21;63.00;;;22.05;;
42714;SDS011;28351;51.480;5.706;2023-05-10T02:47:51;69.70;;;23.75;;
42714;SDS011;28351;51.480;5.706;2023-05-10T02:50:17;70.15;;;24.00;;
42714;SDS011;28351;51.480;5.706;2023-05-10T02:52:47;66.90;;;25.08;;
42714;SDS011;28351;51.480;5.706;2023-05-10T02:55:19;68.35;;;23.55;;
42714;SDS011;28351;51.480;5.706;2023-05-10T02:57:56;73.40;;;23.85;;
42714;SDS011;28351;51.480;5.706;2023-05-10T03:00:26;65.95;;;23.77;;
42714;SDS011;28351;51.480;5.706;2023-05-10T03:02:52;69.35;;;23.42;;
42714;SDS011;28351;51.480;5.706;2023-05-10T03:05:18;66.22;;;23.88;;
42714;SDS011;28351;51.480;5.706;2023-05-10T03:07:44;70.38;;;23.45;;
42714;SDS011;28351;51.480;5.706;2023-05-10T03:10:11;59.13;;;22.08;;
42714;SDS011;28351;51.480;5.706;2023-05-10T03:12:41;62.85;;;23.13;;
42714;SDS011;28351;51.480;5.706;2023-05-10T03:20:48;65.25;;;24.65;;
42714;SDS011;28351;51.480;5.706;2023-05-10T03:25:49;71.97;;;25.40;;
42714;SDS011;28351;51.480;5.706;2023-05-10T03:28:15;63.15;;;23.35;;
42714;SDS011;28351;51.480;5.706;2023-05-10T03:30:42;59.58;;;22.40;;
42714;SDS011;28351;51.480;5.706;2023-05-10T03:33:08;57.40;;;22.92;;
42714;SDS011;28351;51.480;5.706;2023-05-10T03:35:34;73.35;;;26.42;;
42714;SDS011;28351;51.480;5.706;2023-05-10T03:38:00;63.28;;;23.88;;
42714;SDS011;28351;51.480;5.706;2023-05-10T03:40:26;70.70;;;25.50;;
42714;SDS011;28351;51.480;5.706;2023-05-10T03:42:57;67.95;;;23.55;;
42714;SDS011;28351;51.480;5.706;2023-05-10T03:45:23;67.65;;;24.75;;
42714;SDS011;28351;51.480;5.706;2023-05-10T03:47:48;69.63;;;22.95;;
42714;SDS011;28351;51.480;5.706;2023-05-10T03:50:14;65.90;;;25.20;;
42714;SDS011;28351;51.480;5.706;2023-05-10T03:52:39;60.97;;;23.80;;
42714;SDS011;28351;51.480;5.706;2023-05-10T03:55:06;64.53;;;24.55;;
42714;SDS011;28351;51.480;5.706;2023-05-10T03:57:32;69.40;;;24.60;;
42714;SDS011;28351;51.480;5.706;2023-05-10T03:59:58;63.97;;;24.52;;
42714;SDS011;28351;51.480;5.706;2023-05-10T04:02:24;59.45;;;23.42;;
42714;SDS011;28351;51.480;5.706;2023-05-10T04:04:50;63.50;;;24.10;;
42714;SDS011;28351;51.480;5.706;2023-05-10T04:07:16;59.03;;;23.20;;
42714;SDS011;28351;51.480;5.706;2023-05-10T04:09:41;56.70;;;23.35;;
42714;SDS011;28351;51.480;5.706;2023-05-10T04:12:07;60.58;;;22.95;;
42714;SDS011;28351;51.480;5.706;2023-05-10T04:14:33;65.75;;;24.05;;
42714;SDS011;28351;51.480;5.706;2023-05-10T04:16:59;58.25;;;22.02;;
42714;SDS011;28351;51.480;5.706;2023-05-10T04:19:28;60.58;;;23.15;;
42714;SDS011;28351;51.480;5.706;2023-05-10T04:21:57;64.47;;;24.13;;
42714;SDS011;28351;51.480;5.706;2023-05-10T04:24:23;59.22;;;22.95;;
42714;SDS011;28351;51.480;5.706;2023-05-10T04:26:49;63.35;;;24.38;;
42714;SDS011;28351;51.480;5.706;2023-05-10T04:29:14;55.63;;;22.55;;
42714;SDS011;28351;51.480;5.706;2023-05-10T04:31:40;51.83;;;22.00;;
42714;SDS011;28351;51.480;5.706;2023-05-10T04:34:05;58.78;;;22.83;;
42714;SDS011;28351;51.480;5.706;2023-05-10T04:36:31;58.15;;;22.20;;
42714;SDS011;28351;51.480;5.706;2023-05-10T04:39:01;59.35;;;23.40;;
42714;SDS011;28351;51.480;5.706;2023-05-10T04:41:28;55.90;;;22.98;;
42714;SDS011;28351;51.480;5.706;2023-05-10T04:43:56;55.80;;;22.60;;
42714;SDS011;28351;51.480;5.706;2023-05-10T04:46:22;61.28;;;22.38;;
42714;SDS011;28351;51.480;5.706;2023-05-10T04:48:55;62.13;;;22.75;;
42714;SDS011;28351;51.480;5.706;2023-05-10T04:53:51;65.93;;;23.75;;
42714;SDS011;28351;51.480;5.706;2023-05-10T04:56:17;63.63;;;23.42;;
42714;SDS011;28351;51.480;5.706;2023-05-10T04:58:42;74.28;;;24.30;;
42714;SDS011;28351;51.480;5.706;2023-05-10T05:01:08;71.05;;;24.05;;
42714;SDS011;28351;51.480;5.706;2023-05-10T05:03:36;80.53;;;26.40;;
42714;SDS011;28351;51.480;5.706;2023-05-10T05:06:02;84.55;;;28.27;;
42714;SDS011;28351;51.480;5.706;2023-05-10T05:08:28;95.93;;;30.00;;
42714;SDS011;28351;51.480;5.706;2023-05-10T05:10:53;94.97;;;28.80;;
42714;SDS011;28351;51.480;5.706;2023-05-10T05:13:19;95.10;;;30.02;;
42714;SDS011;28351;51.480;5.706;2023-05-10T05:15:47;91.72;;;29.55;;
42714;SDS011;28351;51.480;5.706;2023-05-10T05:18:14;95.93;;;29.60;;
42714;SDS011;28351;51.480;5.706;2023-05-10T05:20:39;90.40;;;29.25;;
42714;SDS011;28351;51.480;5.706;2023-05-10T05:23:05;82.35;;;26.73;;
42714;SDS011;28351;51.480;5.706;2023-05-10T05:25:31;80.35;;;27.65;;
42714;SDS011;28351;51.480;5.706;2023-05-10T05:27:56;79.32;;;27.08;;
42714;SDS011;28351;51.480;5.706;2023-05-10T05:30:22;72.88;;;24.15;;
42714;SDS011;28351;51.480;5.706;2023-05-10T05:32:48;58.22;;;23.50;;
42714;SDS011;28351;51.480;5.706;2023-05-10T05:35:13;72.20;;;24.60;;
42714;SDS011;28351;51.480;5.706;2023-05-10T05:37:39;71.80;;;25.13;;
42714;SDS011;28351;51.480;5.706;2023-05-10T05:40:05;55.85;;;22.33;;
42714;SDS011;28351;51.480;5.706;2023-05-10T05:42:31;59.05;;;22.65;;
42714;SDS011;28351;51.480;5.706;2023-05-10T05:44:59;59.80;;;23.08;;
42714;SDS011;28351;51.480;5.706;2023-05-10T05:47:25;59.08;;;20.88;;
42714;SDS011;28351;51.480;5.706;2023-05-10T05:49:50;62.08;;;24.58;;
42714;SDS011;28351;51.480;5.706;2023-05-10T05:52:16;52.20;;;21.55;;
42714;SDS011;28351;51.480;5.706;2023-05-10T05:54:42;54.55;;;21.27;;
42714;SDS011;28351;51.480;5.706;2023-05-10T05:57:09;51.65;;;22.90;;
42714;SDS011;28351;51.480;5.706;2023-05-10T05:59:35;54.15;;;20.65;;
42714;SDS011;28351;51.480;5.706;2023-05-10T06:02:02;51.63;;;21.25;;
42714;SDS011;28351;51.480;5.706;2023-05-10T06:09:57;45.08;;;19.40;;
42714;SDS011;28351;51.480;5.706;2023-05-10T06:12:22;41.92;;;19.10;;
42714;SDS011;28351;51.480;5.706;2023-05-10T06:14:48;46.45;;;18.88;;
42714;SDS011;28351;51.480;5.706;2023-05-10T06:17:13;42.33;;;19.73;;
42714;SDS011;28351;51.480;5.706;2023-05-10T06:19:49;39.13;;;18.13;;
42714;SDS011;28351;51.480;5.706;2023-05-10T06:22:15;42.80;;;18.85;;
42714;SDS011;28351;51.480;5.706;2023-05-10T06:24:40;38.60;;;17.95;;
42714;SDS011;28351;51.480;5.706;2023-05-10T06:27:06;35.30;;;16.67;;
42714;SDS011;28351;51.480;5.706;2023-05-10T06:29:32;34.28;;;16.25;;
42714;SDS011;28351;51.480;5.706;2023-05-10T06:31:58;31.95;;;16.13;;
42714;SDS011;28351;51.480;5.706;2023-05-10T06:34:24;34.35;;;15.98;;
42714;SDS011;28351;51.480;5.706;2023-05-10T06:36:49;36.75;;;16.40;;
42714;SDS011;28351;51.480;5.706;2023-05-10T06:39:15;34.65;;;16.25;;
42714;SDS011;28351;51.480;5.706;2023-05-10T06:41:41;36.22;;;17.95;;
42714;SDS011;28351;51.480;5.706;2023-05-10T06:44:07;36.63;;;16.58;;
42714;SDS011;28351;51.480;5.706;2023-05-10T06:46:33;40.95;;;18.45;;
42714;SDS011;28351;51.480;5.706;2023-05-10T06:48:58;35.15;;;16.13;;
42714;SDS011;28351;51.480;5.706;2023-05-10T06:51:24;37.53;;;16.52;;
42714;SDS011;28351;51.480;5.706;2023-05-10T06:53:51;31.00;;;15.57;;
42714;SDS011;28351;51.480;5.706;2023-05-10T06:56:16;35.13;;;15.88;;
42714;SDS011;28351;51.480;5.706;2023-05-10T06:58:43;34.47;;;17.17;;
42714;SDS011;28351;51.480;5.706;2023-05-10T07:01:08;31.88;;;15.52;;
42714;SDS011;28351;51.480;5.706;2023-05-10T07:03:35;32.83;;;16.27;;
42714;SDS011;28351;51.480;5.706;2023-05-10T07:06:01;36.63;;;16.65;;
42714;SDS011;28351;51.480;5.706;2023-05-10T07:08:32;33.78;;;15.85;;
42714;SDS011;28351;51.480;5.706;2023-05-10T07:11:04;29.30;;;15.10;;
42714;SDS011;28351;51.480;5.706;2023-05-10T07:13:32;35.35;;;17.30;;
42714;SDS011;28351;51.480;5.706;2023-05-10T07:15:58;33.28;;;16.77;;
42714;SDS011;28351;51.480;5.706;2023-05-10T07:18:25;34.90;;;17.20;;
42714;SDS011;28351;51.480;5.706;2023-05-10T07:20:51;32.78;;;15.50;;
42714;SDS011;28351;51.480;5.706;2023-05-10T07:23:17;31.65;;;15.75;;
42714;SDS011;28351;51.480;5.706;2023-05-10T07:25:49;35.85;;;16.88;;
42714;SDS011;28351;51.480;5.706;2023-05-10T07:28:17;34.78;;;17.05;;
42714;SDS011;28351;51.480;5.706;2023-05-10T07:30:43;32.50;;;17.63;;
42714;SDS011;28351;51.480;5.706;2023-05-10T07:33:10;32.42;;;16.88;;
42714;SDS011;28351;51.480;5.706;2023-05-10T07:35:37;33.08;;;17.20;;
42714;SDS011;28351;51.480;5.706;2023-05-10T07:38:03;35.38;;;17.83;;
42714;SDS011;28351;51.480;5.706;2023-05-10T07:40:29;34.58;;;17.55;;
42714;SDS011;28351;51.480;5.706;2023-05-10T07:42:55;37.13;;;18.08;;
42714;SDS011;28351;51.480;5.706;2023-05-10T07:45:21;37.90;;;19.27;;
42714;SDS011;28351;51.480;5.706;2023-05-10T07:47:46;38.33;;;19.05;;
42714;SDS011;28351;51.480;5.706;2023-05-10T07:50:12;33.22;;;17.38;;
42714;SDS011;28351;51.480;5.706;2023-05-10T07:52:39;34.25;;;17.52;;
42714;SDS011;28351;51.480;5.706;2023-05-10T07:55:04;37.53;;;17.17;;
42714;SDS011;28351;51.480;5.706;2023-05-10T07:57:32;35.05;;;17.70;;
42714;SDS011;28351;51.480;5.706;2023-05-10T08:00:00;33.97;;;17.98;;
42714;SDS011;28351;51.480;5.706;2023-05-10T08:02:26;29.52;;;16.25;;
42714;SDS011;28351;51.480;5.706;2023-05-10T08:04:52;35.80;;;17.75;;
42714;SDS011;28351;51.480;5.706;2023-05-10T08:07:17;34.22;;;17.55;;
42714;SDS011;28351;51.480;5.706;2023-05-10T08:09:43;32.50;;;18.00;;
42714;SDS011;28351;51.480;5.706;2023-05-10T08:12:09;37.78;;;16.85;;
42714;SDS011;28351;51.480;5.706;2023-05-10T08:14:35;31.85;;;17.13;;
42714;SDS011;28351;51.480;5.706;2023-05-10T08:17:02;36.80;;;18.38;;
42714;SDS011;28351;51.480;5.706;2023-05-10T08:19:28;35.03;;;17.52;;
42714;SDS011;28351;51.480;5.706;2023-05-10T08:21:53;36.65;;;16.27;;
42714;SDS011;28351;51.480;5.706;2023-05-10T08:24:20;33.88;;;17.33;;
42714;SDS011;28351;51.480;5.706;2023-05-10T08:26:46;32.25;;;16.85;;
42714;SDS011;28351;51.480;5.706;2023-05-10T08:29:12;27.88;;;15.40;;
42714;SDS011;28351;51.480;5.706;2023-05-10T08:31:38;27.95;;;14.60;;
42714;SDS011;28351;51.480;5.706;2023-05-10T08:34:04;25.88;;;14.73;;
42714;SDS011;28351;51.480;5.706;2023-05-10T08:36:30;26.65;;;13.70;;
42714;SDS011;28351;51.480;5.706;2023-05-10T08:42:24;24.48;;;11.68;;
42714;SDS011;28351;51.480;5.706;2023-05-10T08:44:53;24.40;;;11.45;;
42714;SDS011;28351;51.480;5.706;2023-05-10T08:47:19;17.00;;;9.70;;
42714;SDS011;28351;51.480;5.706;2023-05-10T08:49:46;17.15;;;8.95;;
42714;SDS011;28351;51.480;5.706;2023-05-10T08:52:16;13.40;;;8.18;;
42714;SDS011;28351;51.480;5.706;2023-05-10T08:54:42;17.75;;;9.15;;
42714;SDS011;28351;51.480;5.706;2023-05-10T08:57:09;14.60;;;8.15;;
42714;SDS011;28351;51.480;5.706;2023-05-10T08:59:35;12.65;;;7.38;;
42714;SDS011;28351;51.480;5.706;2023-05-10T09:04:29;14.80;;;7.43;;
42714;SDS011;28351;51.480;5.706;2023-05-10T09:06:56;10.05;;;6.75;;
42714;SDS011;28351;51.480;5.706;2023-05-10T09:09:22;9.68;;;5.93;;
42714;SDS011;28351;51.480;5.706;2023-05-10T09:11:49;10.93;;;5.80;;
42714;SDS011;28351;51.480;5.706;2023-05-10T09:14:18;11.20;;;6.13;;
42714;SDS011;28351;51.480;5.706;2023-05-10T09:16:44;11.15;;;6.72;;
42714;SDS011;28351;51.480;5.706;2023-05-10T09:19:10;9.55;;;5.78;;
42714;SDS011;28351;51.480;5.706;2023-05-10T09:21:36;11.05;;;6.18;;
42714;SDS011;28351;51.480;5.706;2023-05-10T09:26:31;10.73;;;5.35;;
42714;SDS011;28351;51.480;5.706;2023-05-10T09:28:57;13.68;;;6.10;;
42714;SDS011;28351;51.480;5.706;2023-05-10T09:31:24;9.13;;;6.20;;
42714;SDS011;28351;51.480;5.706;2023-05-10T09:34:07;8.75;;;5.35;;
42714;SDS011;28351;51.480;5.706;2023-05-10T09:36:33;9.18;;;5.90;;
42714;SDS011;28351;51.480;5.706;2023-05-10T09:38:58;8.27;;;6.03;;
42714;SDS011;28351;51.480;5.706;2023-05-10T09:41:24;10.93;;;5.90;;
42714;SDS011;28351;51.480;5.706;2023-05-10T09:43:51;9.82;;;6.25;;
42714;SDS011;28351;51.480;5.706;2023-05-10T09:46:21;6.95;;;5.55;;
42714;SDS011;28351;51.480;5.706;2023-05-10T09:48:47;8.45;;;5.70;;
42714;SDS011;28351;51.480;5.706;2023-05-10T09:51:20;8.65;;;5.25;;
42714;SDS011;28351;51.480;5.706;2023-05-10T09:53:46;9.52;;;5.57;;
42714;SDS011;28351;51.480;5.706;2023-05-10T09:56:12;7.15;;;5.30;;
42714;SDS011;28351;51.480;5.706;2023-05-10T09:58:38;8.82;;;5.22;;
42714;SDS011;28351;51.480;5.706;2023-05-10T10:01:04;8.55;;;5.53;;
42714;SDS011;28351;51.480;5.706;2023-05-10T10:03:41;6.38;;;4.78;;
42714;SDS011;28351;51.480;5.706;2023-05-10T10:06:07;5.53;;;4.03;;
42714;SDS011;28351;51.480;5.706;2023-05-10T10:08:34;6.75;;;4.25;;
42714;SDS011;28351;51.480;5.706;2023-05-10T10:11:00;6.65;;;3.97;;
42714;SDS011;28351;51.480;5.706;2023-05-10T10:13:26;5.55;;;3.25;;
42714;SDS011;28351;51.480;5.706;2023-05-10T10:15:52;7.20;;;3.90;;
42714;SDS011;28351;51.480;5.706;2023-05-10T10:18:19;8.00;;;4.57;;
42714;SDS011;28351;51.480;5.706;2023-05-10T10:20:51;6.85;;;4.28;;
42714;SDS011;28351;51.480;5.706;2023-05-10T10:23:19;7.40;;;4.40;;
42714;SDS011;28351;51.480;5.706;2023-05-10T10:25:50;7.75;;;6.00;;
42714;SDS011;28351;51.480;5.706;2023-05-10T10:30:56;8.70;;;6.38;;
42714;SDS011;28351;51.480;5.706;2023-05-10T10:36:02;11.30;;;7.05;;
42714;SDS011;28351;51.480;5.706;2023-05-10T10:41:34;10.05;;;7.40;;
42714;SDS011;28351;51.480;5.706;2023-05-10T10:44:37;14.18;;;7.28;;
42714;SDS011;28351;51.480;5.706;2023-05-10T10:52:36;10.07;;;7.53;;
42714;SDS011;28351;51.480;5.706;2023-05-10T10:55:06;9.63;;;6.60;;
42714;SDS011;28351;51.480;5.706;2023-05-10T11:00:27;9.40;;;6.20;;
42714;SDS011;28351;51.480;5.706;2023-05-10T11:02:56;9.60;;;6.50;;
42714;SDS011;28351;51.480;5.706;2023-05-10T11:05:38;10.55;;;6.55;;
42714;SDS011;28351;51.480;5.706;2023-05-10T11:08:15;8.88;;;5.82;;
42714;SDS011;28351;51.480;5.706;2023-05-10T11:13:29;8.20;;;6.22;;
42714;SDS011;28351;51.480;5.706;2023-05-10T11:15:57;7.85;;;5.00;;
42714;SDS011;28351;51.480;5.706;2023-05-10T11:18:25;8.13;;;5.30;;
42714;SDS011;28351;51.480;5.706;2023-05-10T11:20:59;7.30;;;5.28;;
42714;SDS011;28351;51.480;5.706;2023-05-10T11:23:31;8.15;;;5.13;;
42714;SDS011;28351;51.480;5.706;2023-05-10T11:32:25;7.57;;;5.30;;
42714;SDS011;28351;51.480;5.706;2023-05-10T11:37:20;10.25;;;6.65;;
42714;SDS011;28351;51.480;5.706;2023-05-10T11:39:45;12.52;;;9.48;;
42714;SDS011;28351;51.480;5.706;2023-05-10T11:42:14;13.75;;;9.50;;
42714;SDS011;28351;51.480;5.706;2023-05-10T11:44:39;15.93;;;10.50;;
42714;SDS011;28351;51.480;5.706;2023-05-10T11:47:11;13.60;;;9.52;;
42714;SDS011;28351;51.480;5.706;2023-05-10T11:49:43;14.35;;;8.82;;
42714;SDS011;28351;51.480;5.706;2023-05-10T11:52:15;14.95;;;10.13;;
42714;SDS011;28351;51.480;5.706;2023-05-10T11:54:52;14.65;;;9.05;;
42714;SDS011;28351;51.480;5.706;2023-05-10T11:57:19;15.57;;;9.85;;
42714;SDS011;28351;51.480;5.706;2023-05-10T11:59:53;16.05;;;9.98;;
42714;SDS011;28351;51.480;5.706;2023-05-10T12:02:19;15.18;;;9.13;;
42714;SDS011;28351;51.480;5.706;2023-05-10T12:04:45;14.32;;;9.98;;
42714;SDS011;28351;51.480;5.706;2023-05-10T12:20:20;13.13;;;9.07;;
42714;SDS011;28351;51.480;5.706;2023-05-10T12:22:55;16.75;;;10.32;;
42714;SDS011;28351;51.480;5.706;2023-05-10T12:25:37;17.88;;;9.98;;
42714;SDS011;28351;51.480;5.706;2023-05-10T12:28:10;13.57;;;9.65;;
42714;SDS011;28351;51.480;5.706;2023-05-10T12:30:35;14.60;;;9.35;;
42714;SDS011;28351;51.480;5.706;2023-05-10T12:33:06;13.18;;;8.82;;
42714;SDS011;28351;51.480;5.706;2023-05-10T12:35:46;12.75;;;8.60;;
42714;SDS011;28351;51.480;5.706;2023-05-10T12:41:03;11.45;;;8.20;;
42714;SDS011;28351;51.480;5.706;2023-05-10T12:43:33;11.50;;;7.13;;
42714;SDS011;28351;51.480;5.706;2023-05-10T12:48:36;10.95;;;6.55;;
42714;SDS011;28351;51.480;5.706;2023-05-10T12:51:02;11.15;;;7.10;;
42714;SDS011;28351;51.480;5.706;2023-05-10T12:53:29;12.00;;;7.70;;
42714;SDS011;28351;51.480;5.706;2023-05-10T12:55:58;12.43;;;7.35;;
42714;SDS011;28351;51.480;5.706;2023-05-10T12:58:24;13.82;;;7.90;;
42714;SDS011;28351;51.480;5.706;2023-05-10T13:00:49;12.00;;;7.28;;
42714;SDS011;28351;51.480;5.706;2023-05-10T13:03:16;10.35;;;7.53;;
42714;SDS011;28351;51.480;5.706;2023-05-10T13:05:42;11.95;;;7.40;;
42714;SDS011;28351;51.480;5.706;2023-05-10T13:08:07;12.65;;;7.60;;
42714;SDS011;28351;51.480;5.706;2023-05-10T13:10:33;10.30;;;7.18;;
42714;SDS011;28351;51.480;5.706;2023-05-10T13:13:01;15.20;;;9.18;;
42714;SDS011;28351;51.480;5.706;2023-05-10T13:15:27;18.35;;;10.02;;
42714;SDS011;28351;51.480;5.706;2023-05-10T13:17:53;17.00;;;10.43;;
42714;SDS011;28351;51.480;5.706;2023-05-10T13:20:19;17.20;;;10.55;;
42714;SDS011;28351;51.480;5.706;2023-05-10T13:22:45;17.58;;;10.77;;
42714;SDS011;28351;51.480;5.706;2023-05-10T13:25:11;18.92;;;11.07;;
42714;SDS011;28351;51.480;5.706;2023-05-10T13:27:40;15.68;;;10.23;;
42714;SDS011;28351;51.480;5.706;2023-05-10T13:30:06;14.70;;;10.50;;
42714;SDS011;28351;51.480;5.706;2023-05-10T13:32:33;14.02;;;9.63;;
42714;SDS011;28351;51.480;5.706;2023-05-10T13:34:58;15.57;;;9.27;;
42714;SDS011;28351;51.480;5.706;2023-05-10T13:37:24;17.85;;;9.70;;
42714;SDS011;28351;51.480;5.706;2023-05-10T13:39:49;16.73;;;9.68;;
42714;SDS011;28351;51.480;5.706;2023-05-10T13:42:15;12.85;;;9.25;;
42714;SDS011;28351;51.480;5.706;2023-05-10T13:44:41;9.48;;;7.32;;
42714;SDS011;28351;51.480;5.706;2023-05-10T13:47:06;7.30;;;6.47;;
42714;SDS011;28351;51.480;5.706;2023-05-10T13:49:32;8.75;;;6.32;;
42714;SDS011;28351;51.480;5.706;2023-05-10T13:51:59;7.75;;;6.18;;
42714;SDS011;28351;51.480;5.706;2023-05-10T13:54:34;7.43;;;5.95;;
42714;SDS011;28351;51.480;5.706;2023-05-10T13:57:03;7.82;;;6.43;;
42714;SDS011;28351;51.480;5.706;2023-05-10T13:59:29;11.60;;;6.88;;
42714;SDS011;28351;51.480;5.706;2023-05-10T14:01:56;10.63;;;7.00;;
42714;SDS011;28351;51.480;5.706;2023-05-10T14:04:23;8.63;;;6.60;;
42714;SDS011;28351;51.480;5.706;2023-05-10T14:06:48;9.90;;;7.72;;
42714;SDS011;28351;51.480;5.706;2023-05-10T14:09:17;10.60;;;7.90;;
42714;SDS011;28351;51.480;5.706;2023-05-10T14:11:43;12.95;;;9.73;;
42714;SDS011;28351;51.480;5.706;2023-05-10T14:14:09;13.77;;;9.32;;
42714;SDS011;28351;51.480;5.706;2023-05-10T14:16:35;11.82;;;8.85;;
42714;SDS011;28351;51.480;5.706;2023-05-10T14:19:01;12.25;;;8.02;;
42714;SDS011;28351;51.480;5.706;2023-05-10T14:21:27;10.52;;;8.35;;
42714;SDS011;28351;51.480;5.706;2023-05-10T14:23:56;13.73;;;9.73;;
42714;SDS011;28351;51.480;5.706;2023-05-10T14:26:22;11.90;;;8.65;;
42714;SDS011;28351;51.480;5.706;2023-05-10T14:28:47;15.90;;;10.15;;
42714;SDS011;28351;51.480;5.706;2023-05-10T14:31:13;11.60;;;9.10;;
42714;SDS011;28351;51.480;5.706;2023-05-10T14:33:39;15.43;;;10.30;;
42714;SDS011;28351;51.480;5.706;2023-05-10T14:36:05;14.82;;;10.00;;
42714;SDS011;28351;51.480;5.706;2023-05-10T14:38:31;16.38;;;10.77;;
42714;SDS011;28351;51.480;5.706;2023-05-10T14:40:57;19.92;;;10.70;;
42714;SDS011;28351;51.480;5.706;2023-05-10T14:43:23;15.70;;;10.25;;
42714;SDS011;28351;51.480;5.706;2023-05-10T14:45:49;18.90;;;11.02;;
42714;SDS011;28351;51.480;5.706;2023-05-10T14:48:14;17.77;;;10.65;;
42714;SDS011;28351;51.480;5.706;2023-05-10T14:50:42;17.98;;;11.32;;
42714;SDS011;28351;51.480;5.706;2023-05-10T14:53:08;21.02;;;11.85;;
42714;SDS011;28351;51.480;5.706;2023-05-10T14:55:35;18.85;;;11.23;;
42714;SDS011;28351;51.480;5.706;2023-05-10T14:58:04;18.02;;;10.88;;
42714;SDS011;28351;51.480;5.706;2023-05-10T15:00:37;18.40;;;10.70;;
42714;SDS011;28351;51.480;5.706;2023-05-10T15:03:03;21.92;;;12.77;;
42714;SDS011;28351;51.480;5.706;2023-05-10T15:05:29;19.80;;;12.18;;
42714;SDS011;28351;51.480;5.706;2023-05-10T15:07:54;20.77;;;12.13;;
42714;SDS011;28351;51.480;5.706;2023-05-10T15:10:20;21.77;;;12.75;;
42714;SDS011;28351;51.480;5.706;2023-05-10T15:12:46;22.02;;;13.27;;
42714;SDS011;28351;51.480;5.706;2023-05-10T15:15:12;24.70;;;13.82;;
42714;SDS011;28351;51.480;5.706;2023-05-10T15:17:37;22.75;;;13.40;;
42714;SDS011;28351;51.480;5.706;2023-05-10T15:20:03;19.92;;;11.68;;
42714;SDS011;28351;51.480;5.706;2023-05-10T15:22:29;16.85;;;10.65;;
42714;SDS011;28351;51.480;5.706;2023-05-10T15:24:56;16.23;;;10.07;;
42714;SDS011;28351;51.480;5.706;2023-05-10T15:29:51;14.57;;;8.55;;
42714;SDS011;28351;51.480;5.706;2023-05-10T15:32:16;12.95;;;7.88;;
42714;SDS011;28351;51.480;5.706;2023-05-10T15:34:42;11.38;;;7.63;;
42714;SDS011;28351;51.480;5.706;2023-05-10T15:37:08;9.90;;;6.22;;
42714;SDS011;28351;51.480;5.706;2023-05-10T15:39:35;10.27;;;6.30;;
42714;SDS011;28351;51.480;5.706;2023-05-10T15:44:36;9.95;;;5.53;;
42714;SDS011;28351;51.480;5.706;2023-05-10T15:47:03;7.00;;;4.80;;
42714;SDS011;28351;51.480;5.706;2023-05-10T15:49:30;7.38;;;5.13;;
42714;SDS011;28351;51.480;5.706;2023-05-10T15:51:56;7.22;;;4.75;;
42714;SDS011;28351;51.480;5.706;2023-05-10T15:54:21;6.60;;;4.80;;
42714;SDS011;28351;51.480;5.706;2023-05-10T15:56:48;5.97;;;4.20;;
42714;SDS011;28351;51.480;5.706;2023-05-10T15:59:13;6.90;;;4.55;;